createdAt,value
2019-03-12T00:00:17.468Z,7.93
2019-03-12T00:02:46.382Z,11.70
2019-03-12T00:05:15.330Z,5.73
2019-03-12T00:07:44.228Z,9.20
2019-03-12T00:10:13.163Z,9.10
2019-03-12T00:12:42.062Z,7.80
2019-03-12T00:15:11.019Z,7.70
2019-03-12T00:17:39.922Z,13.63
2019-03-12T00:20:09.716Z,5.63
2019-03-12T00:22:38.621Z,15.30
2019-03-12T00:25:08.475Z,8.27
2019-03-12T00:27:37.387Z,9.63
2019-03-12T00:30:08.137Z,15.50
2019-03-12T00:32:37.046Z,6.57
2019-03-12T00:35:07.492Z,8.57
2019-03-12T00:37:36.395Z,8.63
2019-03-12T00:40:07.517Z,6.83
2019-03-12T00:42:36.472Z,9.50
2019-03-12T00:45:08.541Z,8.23
2019-03-12T00:47:37.495Z,5.50
2019-03-12T00:50:11.247Z,9.97
2019-03-12T00:52:40.212Z,21.47
2019-03-12T00:55:10.111Z,5.80
2019-03-12T00:57:39.070Z,4.90
2019-03-12T01:00:21.697Z,12.20
2019-03-12T01:02:50.663Z,12.77
2019-03-12T01:05:19.594Z,12.67
2019-03-12T01:07:48.535Z,11.43
2019-03-12T01:10:17.443Z,8.30
2019-03-12T01:12:46.395Z,6.40
2019-03-12T01:15:15.798Z,12.83
2019-03-12T01:17:44.738Z,9.47
2019-03-12T01:20:14.843Z,13.67
2019-03-12T01:22:43.796Z,13.83
2019-03-12T01:25:13.626Z,18.37
2019-03-12T01:27:42.570Z,10.90
2019-03-12T01:30:14.448Z,10.57
2019-03-12T01:32:43.395Z,7.57
2019-03-12T01:35:12.612Z,9.20
2019-03-12T01:37:41.558Z,8.27
2019-03-12T01:40:13.067Z,10.07
2019-03-12T01:42:42.018Z,10.87
2019-03-12T01:45:13.508Z,11.03
2019-03-12T01:47:42.550Z,9.37
2019-03-12T01:50:13.625Z,6.73
2019-03-12T01:52:42.580Z,10.07
2019-03-12T01:55:13.647Z,11.83
2019-03-12T01:57:42.592Z,8.17
2019-03-12T02:00:16.686Z,7.27
2019-03-12T02:02:45.619Z,9.43
2019-03-12T02:05:14.619Z,9.67
2019-03-12T02:07:43.563Z,11.67
2019-03-12T02:10:15.859Z,10.17
2019-03-12T02:12:44.781Z,7.70
2019-03-12T02:15:15.088Z,5.53
2019-03-12T02:17:44.035Z,7.17
2019-03-12T02:20:15.414Z,12.67
2019-03-12T02:22:44.323Z,8.50
2019-03-12T02:25:18.612Z,10.27
2019-03-12T02:27:47.513Z,9.03
2019-03-12T02:30:18.836Z,10.07
2019-03-12T02:32:47.735Z,11.70
2019-03-12T02:35:16.674Z,9.20
2019-03-12T02:37:45.579Z,10.87
2019-03-12T02:40:15.716Z,9.53
2019-03-12T02:42:44.655Z,10.80
2019-03-12T02:45:17.787Z,6.73
2019-03-12T02:47:47.072Z,8.33
2019-03-12T02:50:16.459Z,14.00
2019-03-12T02:52:45.440Z,10.00
2019-03-12T02:55:14.684Z,10.30
2019-03-12T02:57:43.601Z,11.73
2019-03-12T03:00:26.746Z,9.47
2019-03-12T03:02:55.688Z,13.43
2019-03-12T03:05:24.637Z,11.20
2019-03-12T03:08:01.150Z,9.20
2019-03-12T03:10:30.097Z,12.13
2019-03-12T03:12:59.000Z,11.57
2019-03-12T03:15:33.661Z,10.03
2019-03-12T03:18:02.558Z,13.10
2019-03-12T03:20:31.508Z,9.20
2019-03-12T03:23:00.427Z,13.53
2019-03-12T03:25:29.373Z,7.67
2019-03-12T03:27:58.316Z,14.80
2019-03-12T03:30:27.550Z,12.13
2019-03-12T03:32:56.670Z,10.93
2019-03-12T03:35:25.626Z,11.70
2019-03-12T03:37:54.531Z,10.57
2019-03-12T03:40:23.727Z,11.30
2019-03-12T03:42:52.703Z,12.93
2019-03-12T03:45:21.734Z,16.70
2019-03-12T03:47:52.616Z,9.40
2019-03-12T03:50:21.562Z,11.73
2019-03-12T03:52:50.487Z,13.00
2019-03-12T03:55:20.626Z,10.57
2019-03-12T03:57:50.097Z,13.20
2019-03-12T04:00:24.579Z,10.97
2019-03-12T04:02:53.573Z,14.37
2019-03-12T04:05:22.533Z,9.90
2019-03-12T04:07:51.534Z,11.83
2019-03-12T04:10:20.574Z,15.03
2019-03-12T04:12:49.475Z,9.53
2019-03-12T04:15:19.310Z,8.97
2019-03-12T04:17:48.487Z,13.77
2019-03-12T04:20:18.558Z,11.47
2019-03-12T04:22:47.598Z,12.53
2019-03-12T04:25:16.577Z,13.60
2019-03-12T04:27:45.585Z,13.33
2019-03-12T04:30:16.294Z,14.73
2019-03-12T04:32:45.247Z,14.77
2019-03-12T04:35:22.944Z,14.13
2019-03-12T04:37:51.912Z,13.23
2019-03-12T04:40:20.834Z,9.90
2019-03-12T04:42:49.755Z,12.23
2019-03-12T04:45:18.768Z,13.17
2019-03-12T04:47:47.730Z,16.93
2019-03-12T04:50:16.864Z,9.00
2019-03-12T04:52:45.898Z,10.90
2019-03-12T04:55:15.903Z,6.93
2019-03-12T04:57:44.947Z,14.40
2019-03-12T05:00:18.882Z,11.97
2019-03-12T05:02:47.856Z,13.53
2019-03-12T05:05:16.754Z,11.27
2019-03-12T05:07:45.813Z,15.67
2019-03-12T05:10:16.530Z,7.60
2019-03-12T05:12:45.507Z,6.93
2019-03-12T05:15:18.670Z,8.37
2019-03-12T05:17:47.619Z,10.03
2019-03-12T05:20:16.822Z,14.20
2019-03-12T05:22:45.929Z,10.57
2019-03-12T05:25:15.543Z,8.53
2019-03-12T05:27:44.588Z,8.27
2019-03-12T05:30:18.558Z,14.03
2019-03-12T05:32:47.500Z,13.00
2019-03-12T05:35:17.224Z,7.33
2019-03-12T05:37:46.309Z,9.07
2019-03-12T05:40:16.023Z,12.80
2019-03-12T05:42:44.967Z,8.70
2019-03-12T05:45:18.177Z,12.07
2019-03-12T05:47:47.229Z,17.73
2019-03-12T05:50:20.965Z,14.67
2019-03-12T05:52:49.918Z,10.30
2019-03-12T05:55:18.827Z,19.17
2019-03-12T05:57:47.728Z,9.83
2019-03-12T06:00:18.874Z,14.93
2019-03-12T06:02:47.784Z,19.63
2019-03-12T06:05:16.727Z,15.67
2019-03-12T06:07:45.635Z,15.10
2019-03-12T06:10:15.381Z,17.90
2019-03-12T06:12:44.288Z,14.30
2019-03-12T06:15:14.840Z,18.50
2019-03-12T06:17:43.748Z,12.30
2019-03-12T06:20:14.108Z,12.50
2019-03-12T06:22:43.013Z,18.97
2019-03-12T06:25:12.060Z,23.40
2019-03-12T06:27:40.966Z,16.23
2019-03-12T06:30:15.297Z,19.53
2019-03-12T06:32:51.798Z,14.77
2019-03-12T06:35:22.363Z,22.93
2019-03-12T06:37:58.912Z,19.37
2019-03-12T06:40:45.342Z,11.13
2019-03-12T06:43:15.826Z,15.47
2019-03-12T06:45:46.365Z,16.10
2019-03-12T06:48:19.319Z,15.40
2019-03-12T06:50:49.852Z,18.17
2019-03-12T06:53:32.288Z,16.63
2019-03-12T06:56:05.495Z,21.63
2019-03-12T06:58:39.074Z,20.37
2019-03-12T07:01:09.596Z,16.10
2019-03-12T07:03:56.384Z,31.00
2019-03-12T07:06:43.391Z,25.03
2019-03-12T07:09:30.428Z,20.17
2019-03-12T07:12:06.611Z,27.73
2019-03-12T07:14:37.212Z,26.47
2019-03-12T07:17:10.450Z,21.33
2019-03-12T07:19:40.974Z,20.53
2019-03-12T07:22:14.436Z,14.83
2019-03-12T07:24:57.007Z,27.20
2019-03-12T07:27:33.435Z,21.27
2019-03-12T07:30:07.089Z,22.23
2019-03-12T07:32:46.807Z,24.80
2019-03-12T07:35:26.976Z,24.33
2019-03-12T07:38:00.219Z,21.60
2019-03-12T07:40:33.604Z,25.33
2019-03-12T07:43:04.129Z,23.20
2019-03-12T07:45:42.164Z,22.10
2019-03-12T07:48:12.313Z,26.60
2019-03-12T07:50:42.930Z,22.40
2019-03-12T07:53:19.360Z,18.93
2019-03-12T07:55:52.815Z,25.10
2019-03-12T07:58:36.038Z,26.23
2019-03-12T08:01:10.676Z,25.17
2019-03-12T08:03:47.400Z,19.07
2019-03-12T08:06:23.804Z,20.83
2019-03-12T08:09:12.456Z,21.67
2019-03-12T08:11:46.001Z,17.70
2019-03-12T08:14:19.021Z,17.00
2019-03-12T08:16:58.291Z,13.97
2019-03-12T08:19:28.771Z,19.03
2019-03-12T08:21:59.305Z,16.57
2019-03-12T08:24:32.648Z,12.27
2019-03-12T08:27:03.174Z,10.67
2019-03-12T08:29:33.674Z,14.73
2019-03-12T08:32:04.232Z,13.20
2019-03-12T08:34:40.470Z,19.03
2019-03-12T08:37:16.718Z,13.83
2019-03-12T08:40:05.258Z,14.13
2019-03-12T08:42:53.665Z,14.60
2019-03-12T08:45:16.595Z,13.40
2019-03-12T08:48:03.838Z,12.33
2019-03-12T08:50:37.462Z,16.80
2019-03-12T08:53:14.239Z,18.53
2019-03-12T08:56:01.362Z,15.03
2019-03-12T08:58:34.875Z,16.93
2019-03-12T09:01:08.331Z,14.03
2019-03-12T09:03:57.151Z,12.70
2019-03-12T09:06:45.503Z,8.50
2019-03-12T09:09:33.824Z,12.13
2019-03-12T09:12:10.441Z,13.67
2019-03-12T09:14:46.980Z,7.93
2019-03-12T09:17:23.229Z,13.20
2019-03-12T09:19:53.727Z,7.97
2019-03-12T09:22:26.938Z,13.97
2019-03-12T09:25:00.450Z,10.97
2019-03-12T09:27:34.602Z,15.30
2019-03-12T09:30:06.291Z,12.47
2019-03-12T09:32:48.857Z,17.27
2019-03-12T09:35:19.379Z,8.77
2019-03-12T09:37:55.632Z,12.90
2019-03-12T09:40:31.944Z,10.47
2019-03-12T09:43:08.440Z,15.03
2019-03-12T09:45:54.069Z,10.67
2019-03-12T09:48:36.178Z,13.60
2019-03-12T09:51:09.668Z,11.63
2019-03-12T09:53:40.159Z,11.13
2019-03-12T09:56:16.660Z,11.93
2019-03-12T09:58:50.368Z,10.70
2019-03-12T10:01:23.922Z,8.73
2019-03-12T10:03:57.352Z,14.63
2019-03-12T10:06:46.164Z,8.47
2019-03-12T10:09:19.425Z,11.53
2019-03-12T10:11:52.940Z,10.53
2019-03-12T10:14:26.611Z,11.83
2019-03-12T10:17:12.383Z,12.57
2019-03-12T10:19:42.867Z,12.43
2019-03-12T10:22:25.707Z,12.33
2019-03-12T10:24:56.209Z,11.77
2019-03-12T10:27:43.083Z,14.50
2019-03-12T10:30:13.677Z,13.23
2019-03-12T10:33:00.436Z,15.30
2019-03-12T10:35:30.930Z,16.30
2019-03-12T10:38:20.559Z,17.37
2019-03-12T10:40:53.776Z,15.77
2019-03-12T10:43:24.401Z,15.27
2019-03-12T10:46:01.150Z,12.07
2019-03-12T10:48:30.094Z,15.60
2019-03-12T10:50:59.408Z,16.07
2019-03-12T10:53:28.375Z,15.27
2019-03-12T10:55:57.283Z,17.77
2019-03-12T10:58:26.249Z,14.57
2019-03-12T11:00:55.178Z,12.37
2019-03-12T11:03:24.083Z,13.77
2019-03-12T11:05:53.049Z,16.87
2019-03-12T11:08:21.993Z,14.90
2019-03-12T11:10:50.907Z,12.63
2019-03-12T11:13:19.867Z,12.43
2019-03-12T11:15:48.791Z,12.63
2019-03-12T11:18:17.732Z,12.00
2019-03-12T11:20:46.635Z,16.50
2019-03-12T11:23:15.542Z,8.50
2019-03-12T11:25:44.483Z,10.17
2019-03-12T11:28:13.479Z,10.33
2019-03-12T11:30:42.866Z,10.57
2019-03-12T11:33:11.767Z,8.97
2019-03-12T11:35:40.719Z,11.73
2019-03-12T11:38:09.861Z,10.97
2019-03-12T11:40:39.069Z,9.60
2019-03-12T11:43:07.977Z,8.10
2019-03-12T11:45:37.975Z,9.57
2019-03-12T11:48:07.450Z,11.47
2019-03-12T11:50:36.402Z,8.40
2019-03-12T11:53:05.315Z,11.70
2019-03-12T11:55:34.348Z,8.83
2019-03-12T11:58:03.263Z,8.10
2019-03-12T12:00:43.083Z,8.73
2019-03-12T12:03:12.175Z,8.67
2019-03-12T12:05:41.123Z,7.37
2019-03-12T12:08:10.045Z,9.73
2019-03-12T12:10:39.078Z,10.57
2019-03-12T12:13:07.984Z,8.80
2019-03-12T12:15:37.011Z,9.57
2019-03-12T12:18:06.912Z,8.00
2019-03-12T12:20:35.854Z,9.83
2019-03-12T12:23:04.760Z,8.87
2019-03-12T12:25:33.722Z,8.57
2019-03-12T12:28:02.635Z,7.43
2019-03-12T12:30:31.580Z,11.20
2019-03-12T12:33:00.487Z,10.53
2019-03-12T12:35:29.435Z,10.33
2019-03-12T12:37:58.340Z,8.90
2019-03-12T12:40:27.283Z,8.13
2019-03-12T12:42:56.209Z,10.13
2019-03-12T12:45:30.375Z,10.83
2019-03-12T12:47:59.280Z,11.30
2019-03-12T12:50:28.223Z,12.33
2019-03-12T12:52:57.124Z,12.13
2019-03-12T12:55:26.030Z,10.27
2019-03-12T12:57:54.981Z,12.37
2019-03-12T13:00:25.651Z,13.13
2019-03-12T13:02:54.630Z,13.13
2019-03-12T13:05:23.634Z,11.43
2019-03-12T13:07:52.580Z,16.40
2019-03-12T13:10:28.267Z,15.47
2019-03-12T13:12:57.215Z,13.70
2019-03-12T13:15:26.116Z,12.23
2019-03-12T13:17:55.059Z,14.40
2019-03-12T13:20:24.009Z,16.00
2019-03-12T13:22:53.013Z,18.10
2019-03-12T13:25:21.998Z,17.60
2019-03-12T13:27:50.947Z,15.73
2019-03-12T13:30:26.560Z,16.83
2019-03-12T13:32:55.505Z,11.27
2019-03-12T13:35:24.413Z,19.60
2019-03-12T13:37:53.368Z,13.70
2019-03-12T13:40:26.105Z,13.53
2019-03-12T13:42:55.417Z,15.10
2019-03-12T13:45:25.823Z,17.57
2019-03-12T13:48:14.057Z,12.90
2019-03-12T13:50:42.962Z,13.80
2019-03-12T13:53:11.902Z,11.90
2019-03-12T13:55:40.810Z,12.67
2019-03-12T13:58:09.770Z,13.37
2019-03-12T14:00:38.671Z,15.47
2019-03-12T14:03:07.620Z,11.53
2019-03-12T14:05:36.529Z,12.33
2019-03-12T14:08:05.475Z,14.27
2019-03-12T14:10:34.383Z,15.50
2019-03-12T14:13:03.331Z,14.10
2019-03-12T14:15:38.086Z,15.37
2019-03-12T14:18:07.245Z,16.53
2019-03-12T14:20:39.097Z,16.07
2019-03-12T14:23:08.451Z,21.73
2019-03-12T14:25:37.758Z,15.40
2019-03-12T14:28:06.849Z,17.17
2019-03-12T14:30:35.781Z,16.17
2019-03-12T14:33:04.688Z,15.03
2019-03-12T14:35:33.642Z,20.50
2019-03-12T14:38:02.562Z,15.13
2019-03-12T14:40:31.501Z,21.60
2019-03-12T14:43:00.608Z,17.97
2019-03-12T14:45:30.751Z,12.10
2019-03-12T14:47:59.678Z,12.03
2019-03-12T14:50:30.620Z,16.47
2019-03-12T14:53:22.055Z,18.60
2019-03-12T14:55:48.779Z,15.03
2019-03-12T14:58:17.679Z,12.77
2019-03-12T15:00:46.632Z,18.67
2019-03-12T15:03:15.545Z,20.93
2019-03-12T15:05:44.483Z,20.03
2019-03-12T15:08:13.399Z,15.73
2019-03-12T15:10:42.352Z,11.30
2019-03-12T15:13:11.251Z,17.60
2019-03-12T15:15:40.204Z,12.57
2019-03-12T15:18:09.108Z,17.67
2019-03-12T15:20:38.059Z,16.33
2019-03-12T15:23:06.970Z,16.63
2019-03-12T15:25:36.019Z,13.60
2019-03-12T15:28:04.929Z,17.03
2019-03-12T15:30:33.946Z,14.50
2019-03-12T15:33:02.848Z,16.00
2019-03-12T15:35:31.792Z,18.13
2019-03-12T15:38:00.711Z,17.17
2019-03-12T15:40:30.142Z,17.70
2019-03-12T15:42:59.047Z,17.23
2019-03-12T15:45:28.003Z,18.27
2019-03-12T15:47:56.902Z,16.90
2019-03-12T15:50:25.860Z,18.50
2019-03-12T15:52:54.767Z,18.53
2019-03-12T15:55:23.725Z,13.37
2019-03-12T15:57:52.628Z,14.70
2019-03-12T16:00:21.567Z,17.37
2019-03-12T16:02:50.472Z,13.90
2019-03-12T16:05:20.388Z,12.43
2019-03-12T16:07:49.293Z,18.37
2019-03-12T16:10:19.704Z,15.13
2019-03-12T16:12:48.775Z,13.30
2019-03-12T16:15:18.672Z,16.47
2019-03-12T16:17:47.625Z,13.40
2019-03-12T16:20:17.832Z,14.93
2019-03-12T16:22:46.791Z,12.10
2019-03-12T16:25:15.995Z,14.30
2019-03-12T16:27:44.938Z,13.47
2019-03-12T16:30:16.141Z,11.67
2019-03-12T16:32:45.067Z,11.70
2019-03-12T16:35:13.974Z,15.13
2019-03-12T16:37:43.842Z,19.10
2019-03-12T16:40:14.856Z,18.33
2019-03-12T16:42:43.802Z,10.43
2019-03-12T16:45:14.771Z,12.60
2019-03-12T16:47:43.723Z,13.50
2019-03-12T16:50:16.658Z,12.70
2019-03-12T16:52:45.607Z,10.30
2019-03-12T16:55:19.059Z,15.00
2019-03-12T16:57:48.017Z,10.57
2019-03-12T17:00:19.304Z,10.00
2019-03-12T17:02:48.286Z,18.23
2019-03-12T17:05:17.248Z,10.40
2019-03-12T17:07:46.195Z,13.50
2019-03-12T17:10:19.409Z,12.43
2019-03-12T17:12:48.365Z,14.47
2019-03-12T17:15:19.291Z,11.00
2019-03-12T17:17:48.240Z,14.27
2019-03-12T17:20:17.847Z,14.80
2019-03-12T17:22:46.790Z,15.90
2019-03-12T17:25:15.818Z,15.23
2019-03-12T17:27:44.772Z,11.00
2019-03-12T17:30:18.925Z,15.93
2019-03-12T17:32:47.868Z,16.40
2019-03-12T17:35:22.720Z,14.23
2019-03-12T17:37:51.665Z,14.23
2019-03-12T17:40:21.779Z,14.83
2019-03-12T17:42:50.730Z,12.07
2019-03-12T17:45:19.639Z,16.67
2019-03-12T17:47:48.595Z,18.50
2019-03-12T17:50:17.527Z,15.33
2019-03-12T17:52:46.561Z,10.10
2019-03-12T17:55:15.882Z,13.33
2019-03-12T17:57:44.829Z,11.43
2019-03-12T18:00:19.931Z,13.00
2019-03-12T18:02:48.914Z,13.63
2019-03-12T18:05:17.827Z,11.57
2019-03-12T18:07:46.786Z,11.47
2019-03-12T18:10:16.983Z,11.23
2019-03-12T18:12:45.893Z,12.70
2019-03-12T18:15:20.017Z,14.57
2019-03-12T18:17:49.239Z,14.93
2019-03-12T18:20:22.522Z,14.20
2019-03-12T18:22:51.430Z,12.83
2019-03-12T18:25:31.583Z,14.10
2019-03-12T18:28:00.523Z,11.33
2019-03-12T18:30:29.432Z,19.83
2019-03-12T18:32:58.341Z,17.10
2019-03-12T18:35:27.287Z,14.80
2019-03-12T18:37:56.218Z,17.43
2019-03-12T18:40:26.549Z,11.70
2019-03-12T18:42:55.463Z,16.63
2019-03-12T18:45:28.733Z,9.67
2019-03-12T18:47:57.635Z,13.00
2019-03-12T18:50:26.619Z,14.87
2019-03-12T18:52:55.534Z,14.00
2019-03-12T18:55:33.584Z,21.23
2019-03-12T18:58:06.851Z,10.13
2019-03-12T19:00:36.874Z,13.43
2019-03-12T19:03:05.789Z,16.23
2019-03-12T19:05:34.754Z,12.60
2019-03-12T19:08:03.653Z,12.53
2019-03-12T19:10:32.604Z,13.80
2019-03-12T19:13:01.511Z,12.97
2019-03-12T19:15:30.452Z,9.13
2019-03-12T19:17:59.352Z,11.97
2019-03-12T19:20:28.299Z,10.83
2019-03-12T19:22:57.204Z,16.23
2019-03-12T19:25:37.982Z,14.93
2019-03-12T19:28:05.719Z,4.93
2019-03-12T19:30:34.659Z,12.33
2019-03-12T19:33:05.150Z,12.13
2019-03-12T19:35:34.615Z,8.20
2019-03-12T19:38:03.918Z,10.07
2019-03-12T19:40:43.689Z,15.80
2019-03-12T19:43:12.579Z,11.83
2019-03-12T19:45:41.530Z,8.93
2019-03-12T19:48:10.434Z,9.63
2019-03-12T19:50:39.387Z,9.80
2019-03-12T19:53:08.290Z,13.87
2019-03-12T19:55:52.287Z,8.93
2019-03-12T19:58:21.192Z,11.77
2019-03-12T20:00:50.346Z,11.97
2019-03-12T20:03:19.372Z,13.73
2019-03-12T20:05:48.321Z,14.90
2019-03-12T20:08:17.233Z,10.77
2019-03-12T20:10:51.979Z,10.97
2019-03-12T20:13:40.721Z,11.20
2019-03-12T20:16:32.147Z,11.77
2019-03-12T20:19:09.246Z,16.63
2019-03-12T20:21:49.920Z,12.60
2019-03-12T20:24:47.298Z,10.67
2019-03-12T20:27:47.754Z,7.63
2019-03-12T20:30:31.432Z,11.73
2019-03-12T20:33:35.261Z,9.67
2019-03-12T20:36:23.369Z,11.57
2019-03-12T20:39:13.229Z,7.57
2019-03-12T20:42:01.825Z,12.23
2019-03-12T20:45:00.712Z,10.57
2019-03-12T20:47:47.729Z,11.87
2019-03-12T20:50:38.709Z,10.83
2019-03-12T20:53:13.378Z,10.47
2019-03-12T20:56:18.669Z,10.90
2019-03-12T20:59:11.243Z,7.00
2019-03-12T21:01:58.127Z,11.30
2019-03-12T21:05:04.810Z,11.30
2019-03-12T21:07:42.810Z,12.37
2019-03-12T21:10:17.679Z,11.77
2019-03-12T21:13:09.218Z,9.93
2019-03-12T21:15:49.884Z,14.93
2019-03-12T21:18:33.639Z,12.63
2019-03-12T21:21:22.147Z,7.50
2019-03-12T21:24:12.461Z,13.40
2019-03-12T21:27:03.632Z,11.37
2019-03-12T21:29:44.364Z,10.47
2019-03-12T21:32:14.942Z,8.27
2019-03-12T21:34:43.920Z,10.50
2019-03-12T21:37:13.380Z,11.87
2019-03-12T21:39:54.379Z,8.63
2019-03-12T21:42:12.994Z,9.87
2019-03-12T21:44:41.946Z,10.07
2019-03-12T21:47:11.096Z,8.87
2019-03-12T21:49:40.009Z,10.90
2019-03-12T21:52:10.242Z,9.90
2019-03-12T21:54:39.267Z,10.03
2019-03-12T21:57:08.240Z,10.43
2019-03-12T21:59:38.751Z,8.07
2019-03-12T22:02:07.875Z,8.67
2019-03-12T22:04:36.823Z,12.33
2019-03-12T22:07:05.752Z,10.67
2019-03-12T22:09:34.909Z,11.17
2019-03-12T22:12:03.860Z,9.53
2019-03-12T22:14:32.803Z,7.13
2019-03-12T22:17:02.507Z,10.37
2019-03-12T22:19:31.450Z,8.03
2019-03-12T22:22:01.943Z,9.40
2019-03-12T22:24:30.895Z,10.77
2019-03-12T22:26:59.794Z,11.70
2019-03-12T22:29:29.436Z,12.13
2019-03-12T22:31:58.383Z,12.10
2019-03-12T22:34:30.066Z,9.40
2019-03-12T22:36:57.905Z,8.90
2019-03-12T22:39:26.857Z,9.63
2019-03-12T22:41:55.746Z,11.03
2019-03-12T22:44:24.696Z,8.87
2019-03-12T22:46:53.602Z,12.83
2019-03-12T22:49:22.658Z,10.30
2019-03-12T22:51:51.568Z,10.03
2019-03-12T22:54:20.704Z,12.03
2019-03-12T22:56:49.741Z,11.47
2019-03-12T22:59:18.792Z,8.43
2019-03-12T23:01:47.724Z,11.30
2019-03-12T23:04:16.677Z,13.23
2019-03-12T23:06:45.592Z,14.20
2019-03-12T23:09:14.548Z,10.63
2019-03-12T23:11:43.447Z,15.13
2019-03-12T23:14:12.430Z,11.27
2019-03-12T23:16:41.372Z,9.30
2019-03-12T23:19:10.524Z,13.37
2019-03-12T23:21:39.715Z,13.43
2019-03-12T23:24:10.280Z,9.10
2019-03-12T23:26:39.183Z,11.93
2019-03-12T23:29:08.145Z,10.90
2019-03-12T23:31:37.050Z,10.87
2019-03-12T23:34:05.956Z,14.80
2019-03-12T23:36:34.903Z,12.10
2019-03-12T23:39:05.118Z,18.70
2019-03-12T23:41:34.163Z,12.13
2019-03-12T23:44:03.073Z,13.70
2019-03-12T23:46:32.219Z,7.27
2019-03-12T23:49:01.134Z,10.00
2019-03-12T23:51:30.068Z,8.43
2019-03-12T23:53:58.970Z,4.03
2019-03-12T23:56:27.942Z,3.17
2019-03-12T23:58:56.838Z,3.70
